Terminal Aerodrome Forecast
Issued by NWS Huntsville, AL

Current Version | Previous Version | Text Only | Print | Product List | Glossary On
Versions: 1 2 3 4 5 6 7 8 9 10 11 12 13 14 15
000
FTUS44 KHUN 010523
TAFMSL
TAF
KMSL 010523Z 0106/0206 33010KT P6SM SCT050
     FM011400 34013G20KT P6SM FEW050
     FM012200 35007KT P6SM SKC=

USA.gov is the U.S. government's official web portal to all federal, state and local government web resources and services.